sensor_id;sensor_type;location;lat;lon;timestamp;pressure;altitude;pressure_sealevel;temperature;humidity
41078;BME280;26823;42.662;23.352;2022-07-23T00:01:53;95054.09;;;20.92;55.42
41078;BME280;26823;42.662;23.352;2022-07-23T00:04:18;95056.38;;;20.90;55.98
41078;BME280;26823;42.662;23.352;2022-07-23T00:06:44;95064.72;;;20.81;56.57
41078;BME280;26823;42.662;23.352;2022-07-23T00:09:09;95065.34;;;20.99;55.94
41078;BME280;26823;42.662;23.352;2022-07-23T00:11:35;95054.69;;;20.98;55.81
41078;BME280;26823;42.662;23.352;2022-07-23T00:14:00;95068.47;;;20.77;57.12
41078;BME280;26823;42.662;23.352;2022-07-23T00:16:25;95073.44;;;20.62;57.95
41078;BME280;26823;42.662;23.352;2022-07-23T00:18:51;95055.53;;;20.56;58.29
41078;BME280;26823;42.662;23.352;2022-07-23T00:21:16;95071.44;;;20.72;57.40
41078;BME280;26823;42.662;23.352;2022-07-23T00:23:41;95076.50;;;20.82;57.06
41078;BME280;26823;42.662;23.352;2022-07-23T00:26:07;95056.47;;;20.60;58.03
41078;BME280;26823;42.662;23.352;2022-07-23T00:28:33;95069.50;;;20.51;58.92
41078;BME280;26823;42.662;23.352;2022-07-23T00:30:58;95075.06;;;20.42;59.24
41078;BME280;26823;42.662;23.352;2022-07-23T00:33:24;95077.72;;;20.30;59.53
41078;BME280;26823;42.662;23.352;2022-07-23T00:35:49;95078.78;;;20.37;59.24
41078;BME280;26823;42.662;23.352;2022-07-23T00:38:14;95077.66;;;20.60;58.51
41078;BME280;26823;42.662;23.352;2022-07-23T00:40:40;95085.66;;;20.74;58.12
41078;BME280;26823;42.662;23.352;2022-07-23T00:43:06;95083.25;;;20.63;57.95
41078;BME280;26823;42.662;23.352;2022-07-23T00:45:32;95080.06;;;20.61;56.76
41078;BME280;26823;42.662;23.352;2022-07-23T00:47:58;95053.22;;;20.46;55.33
41078;BME280;26823;42.662;23.352;2022-07-23T00:50:24;95077.97;;;20.58;56.38
41078;BME280;26823;42.662;23.352;2022-07-23T00:52:49;95065.41;;;20.57;54.87
41078;BME280;26823;42.662;23.352;2022-07-23T00:55:15;95076.19;;;20.62;55.85
41078;BME280;26823;42.662;23.352;2022-07-23T00:57:41;95066.13;;;20.66;54.30
41078;BME280;26823;42.662;23.352;2022-07-23T01:00:10;95081.13;;;20.69;55.28
41078;BME280;26823;42.662;23.352;2022-07-23T01:02:37;95066.13;;;20.66;54.64
41078;BME280;26823;42.662;23.352;2022-07-23T01:05:02;95078.13;;;20.83;54.00
41078;BME280;26823;42.662;23.352;2022-07-23T01:07:28;95077.28;;;20.82;53.97
41078;BME280;26823;42.662;23.352;2022-07-23T01:09:54;95076.91;;;20.93;54.15
41078;BME280;26823;42.662;23.352;2022-07-23T01:12:20;95074.38;;;20.88;53.87
41078;BME280;26823;42.662;23.352;2022-07-23T01:14:59;95067.25;;;20.65;54.96
41078;BME280;26823;42.662;23.352;2022-07-23T01:17:25;95085.38;;;20.88;54.39
41078;BME280;26823;42.662;23.352;2022-07-23T01:19:51;95069.66;;;20.88;54.21
41078;BME280;26823;42.662;23.352;2022-07-23T01:22:19;95068.59;;;20.80;54.39
41078;BME280;26823;42.662;23.352;2022-07-23T01:24:45;95056.13;;;20.62;54.92
41078;BME280;26823;42.662;23.352;2022-07-23T01:27:10;95058.75;;;20.58;55.44
41078;BME280;26823;42.662;23.352;2022-07-23T01:29:38;95053.94;;;20.55;55.41
41078;BME280;26823;42.662;23.352;2022-07-23T01:32:03;95066.41;;;20.52;55.79
41078;BME280;26823;42.662;23.352;2022-07-23T01:34:29;95035.97;;;20.36;55.79
41078;BME280;26823;42.662;23.352;2022-07-23T01:36:54;95057.03;;;20.53;55.22
41078;BME280;26823;42.662;23.352;2022-07-23T01:39:20;95058.81;;;20.49;55.28
41078;BME280;26823;42.662;23.352;2022-07-23T01:41:45;95055.28;;;20.49;55.09
41078;BME280;26823;42.662;23.352;2022-07-23T01:44:12;95046.19;;;20.36;55.44
41078;BME280;26823;42.662;23.352;2022-07-23T01:46:38;95054.00;;;20.25;55.41
41078;BME280;26823;42.662;23.352;2022-07-23T01:49:04;95035.75;;;20.29;55.51
41078;BME280;26823;42.662;23.352;2022-07-23T01:51:29;95043.34;;;20.24;55.91
41078;BME280;26823;42.662;23.352;2022-07-23T01:53:55;95048.31;;;20.30;55.72
41078;BME280;26823;42.662;23.352;2022-07-23T01:56:20;95051.41;;;20.29;55.86
41078;BME280;26823;42.662;23.352;2022-07-23T01:58:47;95066.75;;;20.30;55.88
41078;BME280;26823;42.662;23.352;2022-07-23T02:01:12;95053.22;;;20.25;56.18
41078;BME280;26823;42.662;23.352;2022-07-23T02:03:38;95052.59;;;20.19;56.21
41078;BME280;26823;42.662;23.352;2022-07-23T02:06:03;95052.84;;;19.84;57.82
41078;BME280;26823;42.662;23.352;2022-07-23T02:08:29;95055.75;;;19.79;57.60
41078;BME280;26823;42.662;23.352;2022-07-23T02:10:54;95072.00;;;19.93;57.29
41078;BME280;26823;42.662;23.352;2022-07-23T02:13:19;95076.31;;;19.94;57.22
41078;BME280;26823;42.662;23.352;2022-07-23T02:15:48;95065.88;;;19.87;57.53
41078;BME280;26823;42.662;23.352;2022-07-23T02:18:14;95071.53;;;19.91;57.39
41078;BME280;26823;42.662;23.352;2022-07-23T02:20:40;95073.97;;;19.83;57.55
41078;BME280;26823;42.662;23.352;2022-07-23T02:23:05;95059.06;;;19.54;58.60
41078;BME280;26823;42.662;23.352;2022-07-23T02:25:32;95064.72;;;19.58;59.37
41078;BME280;26823;42.662;23.352;2022-07-23T02:27:57;95063.28;;;19.52;59.37
41078;BME280;26823;42.662;23.352;2022-07-23T02:30:23;95070.53;;;19.56;59.00
41078;BME280;26823;42.662;23.352;2022-07-23T02:32:48;95065.59;;;19.41;59.84
41078;BME280;26823;42.662;23.352;2022-07-23T02:35:14;95072.00;;;19.54;59.33
41078;BME280;26823;42.662;23.352;2022-07-23T02:37:39;95054.44;;;19.46;58.90
41078;BME280;26823;42.662;23.352;2022-07-23T02:40:05;95064.66;;;19.67;58.55
41078;BME280;26823;42.662;23.352;2022-07-23T02:42:30;95085.00;;;19.66;58.99
41078;BME280;26823;42.662;23.352;2022-07-23T02:44:56;95068.19;;;19.37;60.32
41078;BME280;26823;42.662;23.352;2022-07-23T02:47:21;95079.28;;;19.50;59.78
41078;BME280;26823;42.662;23.352;2022-07-23T02:49:46;95073.28;;;19.56;59.54
41078;BME280;26823;42.662;23.352;2022-07-23T02:52:12;95084.97;;;19.36;60.47
41078;BME280;26823;42.662;23.352;2022-07-23T02:54:37;95080.63;;;19.35;60.14
41078;BME280;26823;42.662;23.352;2022-07-23T02:57:03;95083.22;;;19.31;60.21
41078;BME280;26823;42.662;23.352;2022-07-23T02:59:29;95066.00;;;19.22;60.10
41078;BME280;26823;42.662;23.352;2022-07-23T03:01:54;95087.22;;;19.34;60.09
41078;BME280;26823;42.662;23.352;2022-07-23T03:04:19;95052.81;;;19.06;59.94
41078;BME280;26823;42.662;23.352;2022-07-23T03:06:45;95079.03;;;19.25;59.70
41078;BME280;26823;42.662;23.352;2022-07-23T03:09:10;95093.84;;;19.33;59.47
41078;BME280;26823;42.662;23.352;2022-07-23T03:11:36;95093.91;;;19.15;60.21
41078;BME280;26823;42.662;23.352;2022-07-23T03:14:01;95097.31;;;19.12;60.75
41078;BME280;26823;42.662;23.352;2022-07-23T03:16:26;95091.78;;;19.21;59.86
41078;BME280;26823;42.662;23.352;2022-07-23T03:18:52;95098.84;;;19.39;59.33
41078;BME280;26823;42.662;23.352;2022-07-23T03:21:17;95089.38;;;19.28;59.63
41078;BME280;26823;42.662;23.352;2022-07-23T03:23:43;95095.50;;;19.25;59.81
41078;BME280;26823;42.662;23.352;2022-07-23T03:26:08;95101.97;;;19.20;61.00
41078;BME280;26823;42.662;23.352;2022-07-23T03:28:34;95099.66;;;19.31;61.06
41078;BME280;26823;42.662;23.352;2022-07-23T03:30:59;95113.06;;;19.24;62.00
41078;BME280;26823;42.662;23.352;2022-07-23T03:33:24;95084.34;;;19.30;61.31
41078;BME280;26823;42.662;23.352;2022-07-23T03:35:50;95100.97;;;19.72;60.66
41078;BME280;26823;42.662;23.352;2022-07-23T03:38:15;95115.63;;;20.15;59.56
41078;BME280;26823;42.662;23.352;2022-07-23T03:40:41;95106.56;;;20.15;59.27
41078;BME280;26823;42.662;23.352;2022-07-23T03:43:07;95104.75;;;20.19;59.30
41078;BME280;26823;42.662;23.352;2022-07-23T03:45:32;95119.66;;;20.18;59.74
41078;BME280;26823;42.662;23.352;2022-07-23T03:47:58;95118.22;;;20.12;59.87
41078;BME280;26823;42.662;23.352;2022-07-23T03:50:24;95111.38;;;19.97;60.08
41078;BME280;26823;42.662;23.352;2022-07-23T03:52:50;95115.34;;;20.08;60.11
41078;BME280;26823;42.662;23.352;2022-07-23T03:55:15;95114.06;;;20.06;60.13
41078;BME280;26823;42.662;23.352;2022-07-23T03:57:41;95118.13;;;19.99;60.42
41078;BME280;26823;42.662;23.352;2022-07-23T04:00:07;95104.25;;;19.96;60.43
41078;BME280;26823;42.662;23.352;2022-07-23T04:02:34;95125.03;;;20.06;60.81
41078;BME280;26823;42.662;23.352;2022-07-23T04:04:59;95107.63;;;20.01;60.77
41078;BME280;26823;42.662;23.352;2022-07-23T04:07:26;95114.06;;;20.06;60.36
41078;BME280;26823;42.662;23.352;2022-07-23T04:09:52;95117.75;;;20.10;60.79
41078;BME280;26823;42.662;23.352;2022-07-23T04:12:17;95104.22;;;20.04;60.28
41078;BME280;26823;42.662;23.352;2022-07-23T04:14:43;95100.34;;;20.06;60.47
41078;BME280;26823;42.662;23.352;2022-07-23T04:17:08;95128.03;;;19.92;61.77
41078;BME280;26823;42.662;23.352;2022-07-23T04:19:34;95119.56;;;20.06;61.53
41078;BME280;26823;42.662;23.352;2022-07-23T04:22:08;95112.25;;;20.10;61.06
41078;BME280;26823;42.662;23.352;2022-07-23T04:24:34;95119.16;;;20.16;60.84
41078;BME280;26823;42.662;23.352;2022-07-23T04:27:00;95128.81;;;20.22;60.55
41078;BME280;26823;42.662;23.352;2022-07-23T04:29:26;95114.31;;;20.13;60.59
41078;BME280;26823;42.662;23.352;2022-07-23T04:31:52;95121.66;;;20.30;60.25
41078;BME280;26823;42.662;23.352;2022-07-23T04:34:18;95128.00;;;20.21;61.37
41078;BME280;26823;42.662;23.352;2022-07-23T04:36:44;95134.31;;;20.22;61.41
41078;BME280;26823;42.662;23.352;2022-07-23T04:39:09;95121.22;;;20.19;61.58
41078;BME280;26823;42.662;23.352;2022-07-23T04:41:35;95123.25;;;20.10;62.11
41078;BME280;26823;42.662;23.352;2022-07-23T04:44:01;95136.03;;;20.27;61.78
41078;BME280;26823;42.662;23.352;2022-07-23T04:46:27;95130.25;;;20.28;61.46
41078;BME280;26823;42.662;23.352;2022-07-23T04:48:53;95135.41;;;20.30;61.37
41078;BME280;26823;42.662;23.352;2022-07-23T04:51:18;95124.94;;;20.44;60.62
41078;BME280;26823;42.662;23.352;2022-07-23T04:53:44;95130.50;;;20.57;59.84
41078;BME280;26823;42.662;23.352;2022-07-23T04:56:09;95126.06;;;20.73;59.56
41078;BME280;26823;42.662;23.352;2022-07-23T04:58:34;95144.59;;;20.97;58.86
41078;BME280;26823;42.662;23.352;2022-07-23T05:01:00;95141.53;;;20.99;59.31
41078;BME280;26823;42.662;23.352;2022-07-23T05:03:25;95145.84;;;21.21;58.45
41078;BME280;26823;42.662;23.352;2022-07-23T05:05:51;95150.91;;;21.31;58.41
41078;BME280;26823;42.662;23.352;2022-07-23T05:08:16;95141.88;;;21.31;57.19
41078;BME280;26823;42.662;23.352;2022-07-23T05:10:42;95154.28;;;21.49;56.95
41078;BME280;26823;42.662;23.352;2022-07-23T05:13:07;95140.91;;;21.27;58.18
41078;BME280;26823;42.662;23.352;2022-07-23T05:15:33;95127.81;;;21.45;57.13
41078;BME280;26823;42.662;23.352;2022-07-23T05:17:58;95137.81;;;21.62;56.18
41078;BME280;26823;42.662;23.352;2022-07-23T05:20:24;95149.44;;;21.92;54.94
41078;BME280;26823;42.662;23.352;2022-07-23T05:22:49;95149.09;;;22.06;53.97
41078;BME280;26823;42.662;23.352;2022-07-23T05:25:15;95152.56;;;22.15;53.47
41078;BME280;26823;42.662;23.352;2022-07-23T05:27:40;95140.28;;;21.88;54.54
41078;BME280;26823;42.662;23.352;2022-07-23T05:30:06;95153.13;;;22.09;54.19
41078;BME280;26823;42.662;23.352;2022-07-23T05:32:32;95151.75;;;22.15;53.47
41078;BME280;26823;42.662;23.352;2022-07-23T05:34:57;95148.28;;;22.30;52.92
41078;BME280;26823;42.662;23.352;2022-07-23T05:37:23;95146.69;;;22.42;52.97
41078;BME280;26823;42.662;23.352;2022-07-23T05:39:48;95155.19;;;22.49;52.51
41078;BME280;26823;42.662;23.352;2022-07-23T05:42:14;95132.69;;;22.35;52.32
41078;BME280;26823;42.662;23.352;2022-07-23T05:44:39;95143.38;;;22.48;51.80
41078;BME280;26823;42.662;23.352;2022-07-23T05:47:04;95136.72;;;22.37;52.04
41078;BME280;26823;42.662;23.352;2022-07-23T05:49:30;95137.03;;;22.48;52.14
41078;BME280;26823;42.662;23.352;2022-07-23T05:51:55;95143.44;;;22.64;52.26
41078;BME280;26823;42.662;23.352;2022-07-23T05:54:21;95146.00;;;22.57;53.33
41078;BME280;26823;42.662;23.352;2022-07-23T05:56:46;95153.66;;;22.76;52.54
41078;BME280;26823;42.662;23.352;2022-07-23T05:59:11;95151.47;;;22.70;52.20
41078;BME280;26823;42.662;23.352;2022-07-23T06:01:38;95153.41;;;22.82;52.22
41078;BME280;26823;42.662;23.352;2022-07-23T06:04:03;95146.44;;;23.00;51.97
41078;BME280;26823;42.662;23.352;2022-07-23T06:06:29;95138.63;;;23.02;50.17
41078;BME280;26823;42.662;23.352;2022-07-23T06:08:54;95144.22;;;23.18;49.94
41078;BME280;26823;42.662;23.352;2022-07-23T06:11:19;95137.09;;;23.17;49.54
41078;BME280;26823;42.662;23.352;2022-07-23T06:13:45;95131.69;;;23.21;48.83
41078;BME280;26823;42.662;23.352;2022-07-23T06:16:10;95143.09;;;23.35;48.71
41078;BME280;26823;42.662;23.352;2022-07-23T06:18:36;95126.97;;;23.21;48.16
41078;BME280;26823;42.662;23.352;2022-07-23T06:21:01;95147.56;;;23.40;47.80
41078;BME280;26823;42.662;23.352;2022-07-23T06:23:27;95139.91;;;23.49;47.48
41078;BME280;26823;42.662;23.352;2022-07-23T06:25:52;95133.88;;;23.59;47.23
41078;BME280;26823;42.662;23.352;2022-07-23T06:28:17;95142.34;;;23.67;46.30
41078;BME280;26823;42.662;23.352;2022-07-23T06:30:43;95141.63;;;23.70;46.91
41078;BME280;26823;42.662;23.352;2022-07-23T06:33:08;95139.41;;;23.75;44.58
41078;BME280;26823;42.662;23.352;2022-07-23T06:35:34;95132.47;;;23.98;46.12
41078;BME280;26823;42.662;23.352;2022-07-23T06:38:00;95122.06;;;24.07;44.84
41078;BME280;26823;42.662;23.352;2022-07-23T06:40:25;95092.28;;;24.00;45.27
41078;BME280;26823;42.662;23.352;2022-07-23T06:42:51;95134.19;;;24.02;44.94
41078;BME280;26823;42.662;23.352;2022-07-23T06:45:17;95130.34;;;24.07;45.71
41078;BME280;26823;42.662;23.352;2022-07-23T06:47:42;95106.00;;;23.97;45.62
41078;BME280;26823;42.662;23.352;2022-07-23T06:50:08;95141.75;;;24.21;45.35
41078;BME280;26823;42.662;23.352;2022-07-23T06:52:34;95131.94;;;24.24;46.33
41078;BME280;26823;42.662;23.352;2022-07-23T06:55:00;95132.34;;;24.42;44.81
41078;BME280;26823;42.662;23.352;2022-07-23T06:57:25;95132.13;;;24.67;44.48
41078;BME280;26823;42.662;23.352;2022-07-23T06:59:51;95123.91;;;24.70;44.19
41078;BME280;26823;42.662;23.352;2022-07-23T07:02:16;95128.88;;;24.81;43.83
41078;BME280;26823;42.662;23.352;2022-07-23T07:04:42;95123.78;;;25.02;43.83
41078;BME280;26823;42.662;23.352;2022-07-23T07:07:09;95141.75;;;25.12;44.29
41078;BME280;26823;42.662;23.352;2022-07-23T07:09:35;95132.19;;;25.29;41.98
41078;BME280;26823;42.662;23.352;2022-07-23T07:12:08;95118.94;;;25.38;42.79
41078;BME280;26823;42.662;23.352;2022-07-23T07:14:33;95120.84;;;25.54;42.02
41078;BME280;26823;42.662;23.352;2022-07-23T07:16:58;95122.47;;;25.59;40.79
41078;BME280;26823;42.662;23.352;2022-07-23T07:19:24;95122.00;;;25.76;41.08
41078;BME280;26823;42.662;23.352;2022-07-23T07:21:49;95123.28;;;25.82;41.03
41078;BME280;26823;42.662;23.352;2022-07-23T07:24:14;95104.69;;;25.83;40.42
41078;BME280;26823;42.662;23.352;2022-07-23T07:26:40;95094.19;;;25.92;40.53
41078;BME280;26823;42.662;23.352;2022-07-23T07:29:05;95107.22;;;25.92;40.84
41078;BME280;26823;42.662;23.352;2022-07-23T07:31:31;95106.88;;;25.93;41.25
41078;BME280;26823;42.662;23.352;2022-07-23T07:33:57;95104.47;;;26.15;40.68
41078;BME280;26823;42.662;23.352;2022-07-23T07:36:23;95107.50;;;26.33;39.98
41078;BME280;26823;42.662;23.352;2022-07-23T07:38:48;95105.50;;;26.33;39.74
41078;BME280;26823;42.662;23.352;2022-07-23T07:41:14;95094.53;;;26.41;40.71
41078;BME280;26823;42.662;23.352;2022-07-23T07:43:39;95101.09;;;26.56;40.79
41078;BME280;26823;42.662;23.352;2022-07-23T07:46:05;95104.28;;;26.84;40.50
41078;BME280;26823;42.662;23.352;2022-07-23T07:48:38;95090.03;;;26.86;39.46
41078;BME280;26823;42.662;23.352;2022-07-23T07:51:04;95105.56;;;26.94;39.49
41078;BME280;26823;42.662;23.352;2022-07-23T07:53:30;95102.50;;;26.99;38.63
41078;BME280;26823;42.662;23.352;2022-07-23T07:55:58;95109.84;;;27.18;39.47
41078;BME280;26823;42.662;23.352;2022-07-23T07:58:30;95104.94;;;27.42;39.55
41078;BME280;26823;42.662;23.352;2022-07-23T08:01:02;95086.47;;;27.23;38.72
41078;BME280;26823;42.662;23.352;2022-07-23T08:03:27;95095.31;;;27.32;38.91
41078;BME280;26823;42.662;23.352;2022-07-23T08:05:53;95103.19;;;27.64;38.41
41078;BME280;26823;42.662;23.352;2022-07-23T08:08:18;95099.38;;;27.80;37.75
41078;BME280;26823;42.662;23.352;2022-07-23T08:10:43;95071.16;;;27.74;37.92
41078;BME280;26823;42.662;23.352;2022-07-23T08:13:15;95091.53;;;27.93;38.05
41078;BME280;26823;42.662;23.352;2022-07-23T08:15:41;95089.66;;;28.04;37.54
41078;BME280;26823;42.662;23.352;2022-07-23T08:18:07;95085.44;;;28.21;37.33
41078;BME280;26823;42.662;23.352;2022-07-23T08:20:32;95091.91;;;28.40;37.07
41078;BME280;26823;42.662;23.352;2022-07-23T08:23:02;95093.59;;;28.59;36.40
41078;BME280;26823;42.662;23.352;2022-07-23T08:25:33;95090.53;;;28.71;36.50
41078;BME280;26823;42.662;23.352;2022-07-23T08:28:01;95090.59;;;28.82;36.34
41078;BME280;26823;42.662;23.352;2022-07-23T08:30:27;95087.47;;;28.98;36.04
41078;BME280;26823;42.662;23.352;2022-07-23T08:32:57;95079.53;;;29.11;36.12
41078;BME280;26823;42.662;23.352;2022-07-23T08:35:35;95086.81;;;29.34;35.53
41078;BME280;26823;42.662;23.352;2022-07-23T08:38:03;95084.41;;;29.32;34.89
41078;BME280;26823;42.662;23.352;2022-07-23T08:40:32;95084.03;;;29.37;35.69
41078;BME280;26823;42.662;23.352;2022-07-23T08:42:58;95082.84;;;29.38;35.70
41078;BME280;26823;42.662;23.352;2022-07-23T08:45:26;95091.63;;;29.51;34.99
41078;BME280;26823;42.662;23.352;2022-07-23T08:47:56;95084.09;;;29.55;34.84
41078;BME280;26823;42.662;23.352;2022-07-23T08:50:24;95082.88;;;29.49;34.59
41078;BME280;26823;42.662;23.352;2022-07-23T08:52:50;95082.09;;;29.52;33.44
41078;BME280;26823;42.662;23.352;2022-07-23T08:55:21;95087.69;;;29.77;33.34
41078;BME280;26823;42.662;23.352;2022-07-23T08:57:52;95076.56;;;29.92;33.51
41078;BME280;26823;42.662;23.352;2022-07-23T09:00:19;95082.13;;;29.92;33.62
41078;BME280;26823;42.662;23.352;2022-07-23T09:02:45;95069.81;;;30.00;32.54
41078;BME280;26823;42.662;23.352;2022-07-23T09:05:12;95028.75;;;29.75;33.64
41078;BME280;26823;42.662;23.352;2022-07-23T09:10:56;95072.16;;;30.34;32.02
41078;BME280;26823;42.662;23.352;2022-07-23T09:15:51;95067.31;;;30.74;31.43
41078;BME280;26823;42.662;23.352;2022-07-23T09:18:17;95055.69;;;30.90;31.73
41078;BME280;26823;42.662;23.352;2022-07-23T09:20:43;95064.47;;;30.89;32.23
41078;BME280;26823;42.662;23.352;2022-07-23T09:23:09;95055.34;;;30.78;31.63
41078;BME280;26823;42.662;23.352;2022-07-23T09:25:34;95061.75;;;30.64;30.59
41078;BME280;26823;42.662;23.352;2022-07-23T09:28:00;95056.88;;;30.89;30.23
41078;BME280;26823;42.662;23.352;2022-07-23T09:30:30;95072.34;;;31.19;30.94
41078;BME280;26823;42.662;23.352;2022-07-23T09:33:15;95065.41;;;31.46;29.52
41078;BME280;26823;42.662;23.352;2022-07-23T09:38:09;95052.75;;;31.27;30.86
41078;BME280;26823;42.662;23.352;2022-07-23T09:40:35;95055.69;;;30.87;31.83
41078;BME280;26823;42.662;23.352;2022-07-23T09:43:00;95050.91;;;30.91;30.20
41078;BME280;26823;42.662;23.352;2022-07-23T09:45:26;95037.75;;;30.84;30.01
41078;BME280;26823;42.662;23.352;2022-07-23T09:48:12;95041.22;;;31.17;30.37
41078;BME280;26823;42.662;23.352;2022-07-23T09:50:40;95043.84;;;31.46;29.18
41078;BME280;26823;42.662;23.352;2022-07-23T09:53:06;95004.41;;;31.37;29.46
41078;BME280;26823;42.662;23.352;2022-07-23T09:55:36;95040.44;;;31.80;27.21
41078;BME280;26823;42.662;23.352;2022-07-23T09:58:07;95054.28;;;31.95;26.74
41078;BME280;26823;42.662;23.352;2022-07-23T10:00:39;95028.75;;;31.93;26.20
41078;BME280;26823;42.662;23.352;2022-07-23T10:03:06;95032.72;;;31.95;25.88
41078;BME280;26823;42.662;23.352;2022-07-23T10:05:32;95042.13;;;32.19;26.68
41078;BME280;26823;42.662;23.352;2022-07-23T10:08:01;95025.13;;;32.41;26.29
41078;BME280;26823;42.662;23.352;2022-07-23T10:10:27;95023.19;;;32.34;27.29
41078;BME280;26823;42.662;23.352;2022-07-23T10:12:54;95022.31;;;31.96;27.13
41078;BME280;26823;42.662;23.352;2022-07-23T10:15:40;95027.03;;;32.06;26.56
41078;BME280;26823;42.662;23.352;2022-07-23T10:18:05;95017.22;;;32.32;27.57
41078;BME280;26823;42.662;23.352;2022-07-23T10:20:31;95026.19;;;32.55;25.18
41078;BME280;26823;42.662;23.352;2022-07-23T10:23:07;95028.06;;;32.65;22.42
41078;BME280;26823;42.662;23.352;2022-07-23T10:25:46;95023.94;;;32.73;24.41
41078;BME280;26823;42.662;23.352;2022-07-23T10:31:06;95009.72;;;32.95;23.64
41078;BME280;26823;42.662;23.352;2022-07-23T10:36:30;95008.06;;;32.97;22.42
41078;BME280;26823;42.662;23.352;2022-07-23T10:41:34;95007.75;;;33.23;23.07
41078;BME280;26823;42.662;23.352;2022-07-23T10:47:00;94988.94;;;33.23;21.17
41078;BME280;26823;42.662;23.352;2022-07-23T10:49:31;94988.06;;;33.26;22.10
41078;BME280;26823;42.662;23.352;2022-07-23T10:52:15;94987.06;;;33.44;22.07
41078;BME280;26823;42.662;23.352;2022-07-23T10:54:45;94994.97;;;33.49;21.02
41078;BME280;26823;42.662;23.352;2022-07-23T10:57:12;94977.91;;;33.40;22.78
41078;BME280;26823;42.662;23.352;2022-07-23T11:02:29;94976.06;;;33.29;22.71
41078;BME280;26823;42.662;23.352;2022-07-23T11:05:00;94965.72;;;33.50;22.63
41078;BME280;26823;42.662;23.352;2022-07-23T11:07:26;94956.78;;;33.59;21.44
41078;BME280;26823;42.662;23.352;2022-07-23T11:09:52;94968.19;;;33.72;20.76
41078;BME280;26823;42.662;23.352;2022-07-23T11:15:12;94965.03;;;33.70;19.93
41078;BME280;26823;42.662;23.352;2022-07-23T11:20:18;94956.16;;;33.47;20.80
41078;BME280;26823;42.662;23.352;2022-07-23T11:25:33;94952.78;;;33.84;18.33
41078;BME280;26823;42.662;23.352;2022-07-23T11:28:15;94942.03;;;34.02;18.87
41078;BME280;26823;42.662;23.352;2022-07-23T11:30:43;94946.34;;;34.30;18.77
41078;BME280;26823;42.662;23.352;2022-07-23T11:35:45;94942.75;;;34.06;19.05
41078;BME280;26823;42.662;23.352;2022-07-23T11:40:47;94945.66;;;34.23;17.19
41078;BME280;26823;42.662;23.352;2022-07-23T11:43:13;94934.09;;;34.21;16.81
41078;BME280;26823;42.662;23.352;2022-07-23T11:45:41;94934.53;;;34.39;18.00
41078;BME280;26823;42.662;23.352;2022-07-23T11:48:09;94940.47;;;34.45;17.91
41078;BME280;26823;42.662;23.352;2022-07-23T11:50:35;94934.97;;;34.38;17.44
41078;BME280;26823;42.662;23.352;2022-07-23T11:53:01;94926.88;;;34.43;16.31
41078;BME280;26823;42.662;23.352;2022-07-23T11:55:27;94936.50;;;34.62;17.05
41078;BME280;26823;42.662;23.352;2022-07-23T11:57:54;94923.13;;;34.06;16.10
41078;BME280;26823;42.662;23.352;2022-07-23T12:00:25;94925.38;;;34.15;16.52
41078;BME280;26823;42.662;23.352;2022-07-23T12:02:52;94909.41;;;34.32;16.11
41078;BME280;26823;42.662;23.352;2022-07-23T12:05:23;94924.97;;;34.57;15.25
41078;BME280;26823;42.662;23.352;2022-07-23T12:07:54;94934.41;;;34.67;15.18
41078;BME280;26823;42.662;23.352;2022-07-23T12:12:54;94927.38;;;34.38;16.60
41078;BME280;26823;42.662;23.352;2022-07-23T12:15:33;94912.16;;;34.16;17.18
41078;BME280;26823;42.662;23.352;2022-07-23T12:18:00;94919.00;;;34.35;16.87
41078;BME280;26823;42.662;23.352;2022-07-23T12:20:40;94905.31;;;34.57;16.70
41078;BME280;26823;42.662;23.352;2022-07-23T12:23:08;94907.38;;;34.73;16.14
41078;BME280;26823;42.662;23.352;2022-07-23T12:25:44;94911.34;;;34.75;16.64
41078;BME280;26823;42.662;23.352;2022-07-23T12:28:21;94906.00;;;34.81;16.53
41078;BME280;26823;42.662;23.352;2022-07-23T12:30:55;94905.59;;;34.83;15.62
41078;BME280;26823;42.662;23.352;2022-07-23T12:33:29;94900.25;;;34.68;15.99
41078;BME280;26823;42.662;23.352;2022-07-23T12:35:58;94891.84;;;34.08;16.73
41078;BME280;26823;42.662;23.352;2022-07-23T12:38:27;94881.88;;;33.83;14.78
41078;BME280;26823;42.662;23.352;2022-07-23T12:40:58;94891.78;;;34.31;15.86
41078;BME280;26823;42.662;23.352;2022-07-23T12:43:41;94886.41;;;34.61;16.04
41078;BME280;26823;42.662;23.352;2022-07-23T12:46:15;94890.97;;;34.71;15.47
41078;BME280;26823;42.662;23.352;2022-07-23T12:54:06;94885.41;;;34.51;16.64
41078;BME280;26823;42.662;23.352;2022-07-23T12:56:37;94866.00;;;34.57;16.26
41078;BME280;26823;42.662;23.352;2022-07-23T12:59:06;94889.84;;;34.69;15.52
41078;BME280;26823;42.662;23.352;2022-07-23T13:01:42;94879.84;;;34.47;15.62
41078;BME280;26823;42.662;23.352;2022-07-23T13:04:09;94875.09;;;34.24;13.63
41078;BME280;26823;42.662;23.352;2022-07-23T13:06:52;94866.41;;;34.39;14.56
41078;BME280;26823;42.662;23.352;2022-07-23T13:09:22;94865.09;;;34.63;14.04
41078;BME280;26823;42.662;23.352;2022-07-23T13:11:49;94869.41;;;34.48;15.12
41078;BME280;26823;42.662;23.352;2022-07-23T13:14:16;94860.06;;;34.35;13.39
41078;BME280;26823;42.662;23.352;2022-07-23T13:16:43;94867.09;;;34.43;12.88
41078;BME280;26823;42.662;23.352;2022-07-23T13:19:09;94862.66;;;34.45;13.08
41078;BME280;26823;42.662;23.352;2022-07-23T13:21:35;94858.69;;;34.43;13.53
41078;BME280;26823;42.662;23.352;2022-07-23T13:24:00;94865.41;;;34.66;13.94
41078;BME280;26823;42.662;23.352;2022-07-23T13:26:26;94863.59;;;34.75;14.26
41078;BME280;26823;42.662;23.352;2022-07-23T13:28:52;94861.88;;;34.45;14.88
41078;BME280;26823;42.662;23.352;2022-07-23T13:31:20;94854.50;;;34.31;15.68
41078;BME280;26823;42.662;23.352;2022-07-23T13:33:45;94859.69;;;34.12;15.99